Lumber City, Georgia
Current Conditions -  °F | °C
As of 10:15 AM on Saturday 25 Oct 2014 (Local Time) from KAZE Reporting Station
Clear Clear  
Wind Chill: 61°   Ceiling: Unl
Heat Index: 61°   Visibility: 10mi
Dew Point: 51°   Wind: 3mph
Humidity: 70%   Direction: 330°NNW
Pressure: 30.04"   Gusts: NA
Location:  31.93°N, 82.68°W
Report Text: KAZE 251415Z AUTO 33003KT 10SM CLR 16/11 A3004 RMK AO2 T01600105
Loading
Personal Weather Stations






























Interactive Weather Map
Tropical Storm Tracking
New forecast layout! Learn more

10-Day Weather Forecast

Advertisements
Track Severe Weather on mobile